Time;durP1;ratioP1;P1;durP2;ratioP2;P2;SDS_P1;SDS_P2;PMS_P1;PMS_P2;Temp;Humidity;BMP_temperature;BMP_pressure;BME280_temperature;BME280_humidity;BME280_pressure;Samples;Min_cycle;Max_cycle;Signal;HPM_P1;HPM_P2
2022/10/26 00:00:27;;;;;;;17.23;9.25;;;;;;;22.40;66.08;99259.25;2069711;28;20099;-47
2022/10/26 00:01:29;;;;;;;13.70;8.38;;;;;;;22.40;66.10;99272.75;2070759;28;21430;-47
2022/10/26 00:02:29;;;;;;;14.15;8.98;;;;;;;22.40;65.94;99278.16;2067814;28;20042;-47
2022/10/26 00:03:31;;;;;;;18.02;9.40;;;;;;;22.41;65.92;99277.09;2069330;28;20766;-47
2022/10/26 00:04:33;;;;;;;15.40;9.35;;;;;;;22.42;66.00;99276.06;2070879;28;20412;-47
2022/10/26 00:05:34;;;;;;;14.45;8.88;;;;;;;22.41;66.04;99278.97;2071287;28;20049;-48
2022/10/26 00:06:36;;;;;;;14.18;10.05;;;;;;;22.42;66.03;99276.06;2072922;28;20053;-46
2022/10/26 00:07:37;;;;;;;12.65;8.88;;;;;;;22.42;66.04;99280.63;2067658;28;20053;-46
2022/10/26 00:08:39;;;;;;;14.07;8.65;;;;;;;22.42;66.00;99278.75;2072641;28;20416;-47
2022/10/26 00:09:39;;;;;;;16.58;8.82;;;;;;;22.43;65.98;99285.84;2074711;28;20064;-47
2022/10/26 00:10:41;;;;;;;14.75;8.20;;;;;;;22.42;65.93;99281.47;2074200;28;20057;-46
2022/10/26 00:11:43;;;;;;;15.57;8.68;;;;;;;22.41;65.98;99277.09;2065101;28;20054;-46
2022/10/26 00:12:48;;;;;;;15.77;9.07;;;;;;;22.42;65.92;99292.25;2067242;28;20128;-46
2022/10/26 00:13:49;;;;;;;13.55;8.70;;;;;;;22.40;66.06;99286.25;2064427;28;20049;-46
2022/10/26 00:14:51;;;;;;;16.38;10.00;;;;;;;22.41;65.98;99289.78;2067315;28;20050;-48
2022/10/26 00:15:52;;;;;;;14.50;8.80;;;;;;;22.40;66.13;99291.66;2067676;28;20060;-48
2022/10/26 00:16:54;;;;;;;17.63;9.13;;;;;;;22.40;65.89;99294.38;2071815;28;20111;-47
2022/10/26 00:17:55;;;;;;;15.02;8.02;;;;;;;22.41;66.06;99289.78;2070854;28;20045;-48
2022/10/26 00:18:56;;;;;;;12.10;8.45;;;;;;;22.40;66.14;99288.97;2074307;28;20528;-47
2022/10/26 00:19:59;;;;;;;17.15;9.38;;;;;;;22.42;65.98;99291.44;2075568;28;20053;-48
2022/10/26 00:21:04;;;;;;;15.02;8.48;;;;;;;22.41;65.97;99290.63;2073836;28;20099;-48
2022/10/26 00:22:04;;;;;;;15.95;9.65;;;;;;;22.40;66.07;99290.81;2075404;28;20148;-46
2022/10/26 00:23:06;;;;;;;10.88;7.80;;;;;;;22.36;66.08;99282.31;2074573;28;20133;-47
2022/10/26 00:24:07;;;;;;;12.15;8.57;;;;;;;22.38;66.18;99285.63;2075187;28;20053;-47
2022/10/26 00:25:09;;;;;;;23.08;9.88;;;;;;;22.40;66.03;99283.56;2073775;28;20050;-46
2022/10/26 00:26:10;;;;;;;18.02;8.60;;;;;;;22.42;66.01;99278.75;2075571;28;20048;-47
2022/10/26 00:27:13;;;;;;;17.17;7.75;;;;;;;22.41;66.00;99276.28;2075373;28;20067;-48
2022/10/26 00:28:14;;;;;;;18.83;8.85;;;;;;;22.41;66.00;99281.69;2075783;28;20052;-45
2022/10/26 00:29:17;;;;;;;13.40;8.35;;;;;;;22.40;65.95;99275.44;2075327;28;20128;-49
2022/10/26 00:30:17;;;;;;;14.15;8.95;;;;;;;22.40;65.88;99283.56;2074907;28;20094;-47
2022/10/26 00:31:19;;;;;;;15.18;7.95;;;;;;;22.38;66.10;99274.00;2073151;28;20505;-46
2022/10/26 00:32:20;;;;;;;11.77;8.55;;;;;;;22.40;66.10;99277.31;2074804;28;20728;-47
2022/10/26 00:33:22;;;;;;;15.32;8.40;;;;;;;22.41;65.99;99279.81;2064770;28;20052;-46
2022/10/26 00:34:22;;;;;;;15.27;7.97;;;;;;;22.38;65.85;99280.22;2068442;28;20524;-46
2022/10/26 00:35:24;;;;;;;12.68;8.73;;;;;;;22.38;66.11;99280.22;2067054;28;20057;-47
2022/10/26 00:36:25;;;;;;;11.90;7.78;;;;;;;22.39;65.89;99279.19;2067700;28;20594;-48
2022/10/26 00:37:27;;;;;;;12.48;8.55;;;;;;;22.40;65.82;99288.97;2065244;28;20049;-47
2022/10/26 00:38:28;;;;;;;21.08;9.45;;;;;;;22.40;66.06;99285.41;2065669;28;20072;-46
2022/10/26 00:39:30;;;;;;;13.13;7.38;;;;;;;22.38;66.09;99285.63;2067946;28;20057;-47
2022/10/26 00:40:31;;;;;;;11.77;8.18;;;;;;;22.38;66.05;99285.63;2067770;28;20053;-47
2022/10/26 00:41:34;;;;;;;13.45;8.18;;;;;;;22.38;66.02;99276.72;2066441;28;20077;-47
2022/10/26 00:42:36;;;;;;;13.73;9.15;;;;;;;22.37;65.96;99284.00;2068461;28;20049;-49
2022/10/26 00:43:39;;;;;;;13.10;8.15;;;;;;;22.38;66.07;99282.94;2065816;28;20056;-47
2022/10/26 00:45:04;;;;;;;12.80;8.73;;;;;;;22.34;66.17;99278.16;2067768;28;20057;-48
2022/10/26 00:46:12;;;;;;;12.15;7.60;;;;;;;22.35;65.92;99274.44;2061686;28;20069;-46
2022/10/26 00:47:15;;;;;;;15.70;9.82;;;;;;;22.34;66.16;99276.28;2068888;28;27031;-47
2022/10/26 00:48:25;;;;;;;12.00;7.68;;;;;;;22.35;66.17;99274.44;2067021;28;20051;-45
2022/10/26 00:49:25;;;;;;;14.18;7.38;;;;;;;22.35;66.12;99275.25;2068372;28;20049;-47
2022/10/26 00:50:31;;;;;;;12.93;8.43;;;;;;;22.36;66.04;99270.69;2066466;28;20047;-46
2022/10/26 00:51:36;;;;;;;10.52;8.85;;;;;;;22.36;65.96;99276.91;2064412;28;20126;-46
2022/10/26 00:52:38;;;;;;;12.18;7.88;;;;;;;22.36;66.16;99276.91;2065984;28;20370;-48
2022/10/26 00:53:39;;;;;;;14.75;7.40;;;;;;;22.36;65.97;99276.91;2067030;28;20064;-47
2022/10/26 00:54:41;;;;;;;14.00;9.13;;;;;;;22.36;66.08;99276.09;2068351;28;21682;-48
2022/10/26 00:55:44;;;;;;;12.45;8.18;;;;;;;22.37;66.14;99278.59;2067254;28;20577;-48
2022/10/26 00:56:49;;;;;;;14.65;7.72;;;;;;;22.37;66.04;99275.88;2065579;28;20077;-46
2022/10/26 00:57:53;;;;;;;12.88;8.18;;;;;;;22.35;65.99;99275.25;2059209;28;20057;-48
2022/10/26 00:58:56;;;;;;;13.35;8.43;;;;;;;22.36;66.05;99276.91;2066853;28;20497;-48
2022/10/26 00:59:59;;;;;;;12.75;8.20;;;;;;;22.36;65.97;99279.59;2067990;28;20508;-46
2022/10/26 01:01:00;;;;;;;12.07;7.60;;;;;;;22.36;65.79;99276.09;2063416;28;20053;-48
2022/10/26 01:02:01;;;;;;;9.13;7.40;;;;;;;22.37;66.10;99275.03;2067158;28;20064;-48
2022/10/26 01:03:06;;;;;;;17.08;7.78;;;;;;;22.37;66.11;99284.00;2070379;28;20133;-46
2022/10/26 01:04:07;;;;;;;20.83;9.27;;;;;;;22.36;65.87;99279.59;2063551;28;20060;-48
2022/10/26 01:05:09;;;;;;;15.52;8.75;;;;;;;22.37;65.96;99275.88;2067870;28;20059;-48
2022/10/26 01:06:13;;;;;;;13.75;7.95;;;;;;;22.37;65.87;99277.72;2066455;28;20049;-48
2022/10/26 01:07:14;;;;;;;13.85;8.45;;;;;;;22.37;65.92;99278.59;2064664;28;20052;-47
2022/10/26 01:08:17;;;;;;;13.88;7.85;;;;;;;22.38;65.71;99280.22;2068875;28;20049;-46
2022/10/26 01:09:19;;;;;;;12.73;7.47;;;;;;;22.37;66.04;99273.19;2064804;28;20057;-47
2022/10/26 01:10:22;;;;;;;15.65;7.80;;;;;;;22.36;65.91;99276.91;2067993;28;20577;-49
2022/10/26 01:11:23;;;;;;;13.93;7.13;;;;;;;22.36;66.08;99270.69;2065401;28;20060;-48
2022/10/26 01:12:25;;;;;;;14.98;7.50;;;;;;;22.37;65.97;99278.59;2066149;28;20048;-50
2022/10/26 01:13:29;;;;;;;11.85;7.78;;;;;;;22.37;65.98;99278.59;2064855;28;20086;-46
2022/10/26 01:14:32;;;;;;;15.20;7.78;;;;;;;22.35;65.90;99275.25;2073439;28;20064;-48
2022/10/26 01:15:45;;;;;;;11.57;8.85;;;;;;;22.36;66.00;99276.91;2073565;28;20433;-46
2022/10/26 01:16:57;;;;;;;11.10;7.43;;;;;;;22.34;65.99;99280.84;2069290;28;20076;-49
2022/10/26 01:18:09;;;;;;;13.10;7.95;;;;;;;22.31;65.99;99274.00;2069996;28;20049;-47
2022/10/26 01:19:44;;;;;;;10.70;7.10;;;;;;;22.31;66.08;99276.72;2069432;28;20420;-46
2022/10/26 01:21:12;;;;;;;15.90;8.90;;;;;;;22.26;66.26;99274.66;2067413;28;20045;-48
2022/10/26 01:22:17;;;;;;;18.17;7.47;;;;;;;22.29;66.06;99273.41;2068664;28;20164;-46
2022/10/26 01:23:30;;;;;;;15.52;7.45;;;;;;;22.31;66.01;99274.00;2067602;28;20649;-46
2022/10/26 01:24:49;;;;;;;13.32;7.65;;;;;;;22.32;65.91;99272.16;2070101;28;20046;-48
2022/10/26 01:26:15;;;;;;;12.68;7.68;;;;;;;22.28;66.00;99274.44;2069938;28;20045;-49
2022/10/26 01:27:27;;;;;;;11.07;7.35;;;;;;;22.28;66.09;99274.44;2072613;28;22972;-49
2022/10/26 01:28:46;;;;;;;9.73;6.95;;;;;;;22.29;66.01;99276.94;2074302;28;20501;-48
2022/10/26 01:30:24;;;;;;;15.48;7.90;;;;;;;22.27;66.08;99276.31;2071810;28;20476;-46
2022/10/26 01:31:32;;;;;;;14.50;8.38;;;;;;;22.28;66.16;99275.25;2068373;28;20054;-47
2022/10/26 01:32:39;;;;;;;10.57;7.30;;;;;;;22.29;65.96;99274.25;2068599;28;20508;-46
2022/10/26 01:33:45;;;;;;;15.20;7.30;;;;;;;22.32;66.12;99278.38;2068953;28;20053;-46
2022/10/26 01:34:52;;;;;;;10.05;7.07;;;;;;;22.32;65.91;99272.16;2069691;28;20062;-46
2022/10/26 01:36:03;;;;;;;11.45;7.07;;;;;;;22.31;65.94;99279.41;2068502;28;20053;-47
2022/10/26 01:37:07;;;;;;;;;;;;;;;22.20;66.20;99274.66;2068716;28;20046;-48
2022/10/26 01:38:14;;;;;;;8.65;6.65;;;;;;;22.24;66.26;99273.22;2067787;28;19929;-47
2022/10/26 01:39:20;;;;;;;13.75;7.55;;;;;;;22.26;66.13;99271.13;2074117;28;20405;-47
2022/10/26 01:40:25;;;;;;;14.52;6.72;;;;;;;22.30;65.96;99283.16;2068863;28;20076;-46
2022/10/26 01:41:31;;;;;;;11.45;6.55;;;;;;;22.32;65.97;99269.47;2066451;28;20053;-47
2022/10/26 01:42:37;;;;;;;12.77;7.80;;;;;;;22.32;65.85;99270.28;2068610;28;20045;-47
2022/10/26 01:43:42;;;;;;;12.10;7.40;;;;;;;22.32;65.86;99272.97;2065485;28;20053;-47
2022/10/26 01:44:48;;;;;;;13.77;7.43;;;;;;;22.33;65.86;99271.94;2069603;28;20088;-49
2022/10/26 01:45:50;;;;;;;13.82;7.72;;;;;;;22.33;65.98;99273.81;2068270;28;20054;-49
2022/10/26 01:46:55;;;;;;;8.95;6.38;;;;;;;22.34;65.91;99275.47;2068648;28;20577;-47
2022/10/26 01:47:59;;;;;;;11.82;7.65;;;;;;;22.32;66.11;99270.28;2065471;28;20049;-47
2022/10/26 01:49:07;;;;;;;9.85;6.82;;;;;;;22.32;65.95;99270.28;2069088;28;20053;-49
2022/10/26 01:50:10;;;;;;;12.23;8.27;;;;;;;22.33;66.10;99268.41;2071243;28;21767;-49
2022/10/26 01:51:14;;;;;;;12.57;7.40;;;;;;;22.32;65.92;99270.28;2064799;28;20088;-48
2022/10/26 01:52:16;;;;;;;9.38;7.07;;;;;;;22.32;65.74;99267.59;2068639;28;20060;-48
2022/10/26 01:53:19;;;;;;;9.75;7.63;;;;;;;22.32;65.93;99266.75;2069431;28;20781;-46
2022/10/26 01:54:20;;;;;;;10.15;6.90;;;;;;;22.32;65.76;99266.75;2068866;28;20045;-48
2022/10/26 01:55:47;;;;;;;10.60;7.07;;;;;;;22.28;65.92;99271.72;2069082;28;20474;-46
2022/10/26 01:56:51;;;;;;;13.48;7.82;;;;;;;22.29;65.98;99268.00;2069006;28;20693;-47
2022/10/26 01:58:00;;;;;;;12.07;7.43;;;;;;;22.31;65.84;99268.59;2068600;28;20061;-46
2022/10/26 01:59:14;;;;;;;12.95;7.30;;;;;;;22.29;65.96;99270.72;2069724;28;20083;-47
2022/10/26 02:00:15;;;;;;;17.75;6.82;;;;;;;22.30;66.01;99267.78;2066213;28;20057;-46
2022/10/26 02:01:37;;;;;;;10.68;7.28;;;;;;;22.32;66.01;99270.28;2067189;28;20053;-45
2022/10/26 02:02:56;;;;;;;11.38;6.82;;;;;;;22.25;66.09;99274.88;2067660;28;20057;-47
2022/10/26 02:04:07;;;;;;;9.07;6.65;;;;;;;22.26;66.04;99271.97;2068943;28;20246;-48
2022/10/26 02:05:37;;;;;;;9.80;7.25;;;;;;;22.25;65.99;99266.75;2074482;28;20080;-48
2022/10/26 02:06:48;;;;;;;10.93;6.97;;;;;;;22.25;66.24;99274.88;2068407;28;20058;-48
2022/10/26 02:08:03;;;;;;;9.38;6.68;;;;;;;22.25;66.09;99285.66;2068346;28;20075;-49
2022/10/26 02:09:19;;;;;;;10.65;6.57;;;;;;;22.25;65.99;99280.25;2070815;28;20049;-47
2022/10/26 02:10:29;;;;;;;14.80;8.05;;;;;;;22.27;65.91;99280.91;2067751;28;20046;-46
2022/10/26 02:11:40;;;;;;;9.90;6.82;;;;;;;22.27;65.90;99276.31;2067037;28;20138;-47
2022/10/26 02:12:51;;;;;;;16.85;7.55;;;;;;;22.29;66.03;99276.13;2069632;28;20555;-48
2022/10/26 02:13:57;;;;;;;14.48;7.65;;;;;;;22.28;66.10;99275.25;2066984;28;21094;-47
2022/10/26 02:15:06;;;;;;;13.80;7.22;;;;;;;22.29;65.90;99278.81;2068948;28;20053;-47
2022/10/26 02:16:17;;;;;;;9.40;7.43;;;;;;;22.29;65.87;99265.31;2067427;28;20111;-50
2022/10/26 02:17:26;;;;;;;10.23;6.93;;;;;;;22.29;65.93;99273.41;2066842;28;20050;-45
2022/10/26 02:18:36;;;;;;;12.07;7.32;;;;;;;22.29;65.98;99270.72;2070342;28;20152;-47
2022/10/26 02:19:43;;;;;;;12.30;6.47;;;;;;;22.29;65.93;99268.84;2068343;28;20049;-47
2022/10/26 02:20:50;;;;;;;8.73;5.85;;;;;;;22.30;65.88;99266.94;2071048;28;20042;-47
2022/10/26 02:21:56;;;;;;;14.10;7.88;;;;;;;22.28;65.94;99259.03;2067742;28;20402;-46
2022/10/26 02:23:02;;;;;;;11.02;7.50;;;;;;;22.30;65.77;99272.34;2069125;28;20486;-47
2022/10/26 02:24:06;;;;;;;11.20;6.65;;;;;;;22.28;65.97;99264.44;2066595;28;20069;-48
2022/10/26 02:25:14;;;;;;;9.05;6.30;;;;;;;22.29;66.05;99262.59;2069258;28;20630;-47
2022/10/26 02:26:18;;;;;;;13.25;7.22;;;;;;;22.29;66.00;99262.59;2068451;28;20464;-47
2022/10/26 02:27:23;;;;;;;8.93;6.82;;;;;;;22.29;65.77;99255.31;2065142;28;22022;-48
2022/10/26 02:28:30;;;;;;;11.52;6.30;;;;;;;22.29;66.11;99254.50;2067658;28;20053;-47
2022/10/26 02:29:33;;;;;;;13.35;7.22;;;;;;;22.30;66.17;99258.84;2068398;28;20132;-47
2022/10/26 02:30:36;;;;;;;8.95;6.88;;;;;;;22.29;65.72;99249.91;2068067;28;20045;-49
2022/10/26 02:31:40;;;;;;;11.30;7.00;;;;;;;22.30;66.05;99256.16;2068500;28;20148;-48
2022/10/26 02:32:45;;;;;;;10.27;6.22;;;;;;;22.30;65.79;99246.16;2070056;28;20057;-50
2022/10/26 02:33:50;;;;;;;10.60;6.25;;;;;;;22.31;65.77;99255.09;2067969;28;20156;-47
2022/10/26 02:34:55;;;;;;;11.43;6.43;;;;;;;22.30;65.70;99258.84;2067836;28;20049;-45
2022/10/26 02:36:00;;;;;;;9.50;6.45;;;;;;;22.29;65.89;99244.50;2070739;28;20129;-45
2022/10/26 02:37:03;;;;;;;10.05;7.20;;;;;;;22.29;65.98;99243.69;2068099;28;20315;-49
2022/10/26 02:38:09;;;;;;;9.18;6.65;;;;;;;22.30;65.93;99245.34;2066802;28;20057;-47
2022/10/26 02:39:13;;;;;;;12.52;6.38;;;;;;;22.31;65.85;99244.28;2075281;28;20060;-47
2022/10/26 02:40:20;;;;;;;10.35;6.65;;;;;;;22.32;65.96;99245.97;2069264;28;21651;-46
2022/10/26 02:41:23;;;;;;;10.20;6.72;;;;;;;22.30;66.02;99251.56;2068399;28;20061;-46
2022/10/26 02:42:27;;;;;;;9.68;6.90;;;;;;;22.30;65.82;99250.75;2067794;28;20561;-47
2022/10/26 02:43:34;;;;;;;8.90;6.53;;;;;;;22.30;65.86;99253.44;2067356;28;20164;-47
2022/10/26 02:44:42;;;;;;;11.55;6.68;;;;;;;22.30;65.70;99256.16;2069644;28;20140;-45
2022/10/26 02:45:48;;;;;;;8.35;6.63;;;;;;;22.29;65.86;99260.72;2065709;28;20696;-48
2022/10/26 02:46:50;;;;;;;9.57;6.45;;;;;;;22.29;65.82;99254.50;2068381;28;20053;-50
2022/10/26 02:47:53;;;;;;;11.48;6.68;;;;;;;22.28;66.02;99259.03;2067012;28;20065;-48
2022/10/26 02:48:57;;;;;;;9.73;6.65;;;;;;;22.29;65.85;99258.03;2067985;28;20088;-47
2022/10/26 02:49:58;;;;;;;11.25;6.55;;;;;;;22.27;66.03;99262.81;2067475;28;20681;-46
2022/10/26 02:51:03;;;;;;;12.35;6.65;;;;;;;22.28;65.74;99264.44;2066473;28;20050;-48
2022/10/26 02:52:14;;;;;;;9.60;6.40;;;;;;;22.29;65.94;99262.59;2069655;28;20053;-48
2022/10/26 02:53:24;;;;;;;8.02;5.82;;;;;;;22.27;65.80;99262.81;2068428;28;21700;-46
2022/10/26 02:54:31;;;;;;;9.25;6.13;;;;;;;22.28;65.80;99263.63;2068376;28;20064;-46
2022/10/26 02:55:36;;;;;;;9.02;6.63;;;;;;;22.27;66.03;99260.09;2068236;28;20046;-47
2022/10/26 02:56:43;;;;;;;8.18;6.03;;;;;;;22.27;66.04;99267.38;2068184;28;20049;-47
2022/10/26 02:57:50;;;;;;;10.80;6.43;;;;;;;22.28;65.86;99263.63;2067886;28;22373;-46
2022/10/26 02:58:58;;;;;;;11.45;6.38;;;;;;;22.27;65.76;99264.69;2067037;28;20053;-48
2022/10/26 03:00:01;;;;;;;12.32;6.50;;;;;;;22.28;65.89;99269.84;2068656;28;20419;-49
2022/10/26 03:01:02;;;;;;;10.88;6.68;;;;;;;22.29;65.83;99262.59;2067776;28;20062;-46
2022/10/26 03:02:05;;;;;;;12.27;6.55;;;;;;;22.29;65.85;99259.91;2069421;28;20053;-46
2022/10/26 03:03:06;;;;;;;13.68;6.47;;;;;;;22.28;65.90;99266.31;2069037;28;21004;-47
2022/10/26 03:04:09;;;;;;;8.68;7.05;;;;;;;22.27;65.84;99261.97;2068256;28;20110;-47
2022/10/26 03:05:15;;;;;;;8.07;6.25;;;;;;;22.27;66.00;99260.09;2067532;28;20037;-48
2022/10/26 03:06:22;;;;;;;9.65;6.57;;;;;;;22.27;65.82;99257.41;2067292;28;20057;-47
2022/10/26 03:07:23;;;;;;;10.18;6.40;;;;;;;22.29;65.93;99265.31;2071236;28;20132;-46
2022/10/26 03:08:25;;;;;;;9.93;6.55;;;;;;;22.29;65.97;99262.59;2067566;28;20726;-45
2022/10/26 03:09:27;;;;;;;7.60;6.50;;;;;;;22.29;65.91;99265.31;2069150;28;20069;-49
2022/10/26 03:10:29;;;;;;;10.93;6.60;;;;;;;22.26;65.90;99258.44;2067609;28;20680;-46
2022/10/26 03:11:30;;;;;;;9.63;7.90;;;;;;;22.28;65.82;99260.91;2066863;28;20061;-48
2022/10/26 03:12:32;;;;;;;7.63;5.35;;;;;;;22.28;65.76;99260.91;2066199;28;20049;-47
2022/10/26 03:13:32;;;;;;;10.02;6.53;;;;;;;22.27;65.64;99261.97;2069374;28;20046;-48
2022/10/26 03:14:34;;;;;;;12.38;6.03;;;;;;;22.29;65.86;99262.59;2072249;28;20080;-47
2022/10/26 03:15:35;;;;;;;9.07;6.32;;;;;;;22.29;65.92;99266.13;2075558;28;20054;-47
2022/10/26 03:16:37;;;;;;;9.48;6.22;;;;;;;22.30;65.85;99256.16;2070545;28;20045;-48
2022/10/26 03:17:38;;;;;;;13.35;7.45;;;;;;;22.31;65.70;99263.19;2068638;28;20057;-47
2022/10/26 03:18:40;;;;;;;7.70;6.03;;;;;;;22.27;65.87;99260.09;2069256;28;20045;-47
2022/10/26 03:19:42;;;;;;;7.53;6.18;;;;;;;22.28;65.80;99259.03;2068164;28;20057;-56
2022/10/26 03:20:44;;;;;;;7.68;4.88;;;;;;;22.28;65.82;99261.75;2066924;28;20057;-46
2022/10/26 03:21:45;;;;;;;8.73;6.78;;;;;;;22.29;65.78;99266.13;2068654;28;20172;-46
2022/10/26 03:22:47;;;;;;;;;;;;;;;22.16;66.04;99257.19;2072844;28;20054;-50
2022/10/26 03:23:49;;;;;;;8.18;6.28;;;;;;;22.19;65.84;99254.91;2067652;28;19988;-48
2022/10/26 03:24:51;;;;;;;11.18;6.20;;;;;;;22.24;65.96;99259.69;2068881;28;20970;-47
2022/10/26 03:25:55;;;;;;;10.18;6.32;;;;;;;22.25;65.79;99259.47;2068299;28;20479;-46
2022/10/26 03:26:57;;;;;;;10.63;6.70;;;;;;;22.26;65.76;99257.63;2075469;28;20045;-48
2022/10/26 03:27:58;;;;;;;14.07;7.00;;;;;;;22.26;65.72;99260.31;2075598;28;20049;-47
2022/10/26 03:29:00;;;;;;;9.18;6.25;;;;;;;22.28;65.66;99263.63;2075737;28;20045;-47
2022/10/26 03:30:01;;;;;;;13.50;6.78;;;;;;;22.26;65.68;99260.31;2076272;28;20056;-47
2022/10/26 03:31:03;;;;;;;11.20;6.05;;;;;;;22.26;65.72;99257.63;2075286;28;20132;-47
2022/10/26 03:32:04;;;;;;;9.05;5.97;;;;;;;22.27;65.66;99259.28;2071495;28;20061;-47
2022/10/26 03:33:06;;;;;;;9.02;7.00;;;;;;;22.26;65.82;99253.03;2073758;28;20984;-49
2022/10/26 03:34:07;;;;;;;9.00;7.13;;;;;;;22.27;65.78;99257.41;2067007;28;20448;-48
2022/10/26 03:35:10;;;;;;;8.13;6.07;;;;;;;22.28;65.71;99259.03;2068577;28;20060;-46
2022/10/26 03:36:12;;;;;;;10.05;6.70;;;;;;;22.28;65.61;99255.53;2069952;28;20611;-49
2022/10/26 03:37:13;;;;;;;9.45;6.13;;;;;;;22.28;65.55;99263.63;2066446;28;20056;-47
2022/10/26 03:38:15;;;;;;;8.57;6.05;;;;;;;22.28;65.68;99263.63;2072940;28;20137;-46
2022/10/26 03:39:15;;;;;;;7.95;6.60;;;;;;;22.28;65.67;99263.63;2068490;28;20048;-48
2022/10/26 03:40:17;;;;;;;7.38;5.68;;;;;;;22.28;65.66;99261.75;2066869;28;20045;-47
2022/10/26 03:41:18;;;;;;;11.02;6.53;;;;;;;22.29;65.72;99259.91;2064989;28;20250;-45
2022/10/26 03:42:20;;;;;;;;;;;;;;;22.17;66.04;99264.25;2066230;28;20062;-47
2022/10/26 03:43:20;;;;;;;;;;;;;;;22.07;66.43;99252.03;2070260;28;19925;-48
2022/10/26 03:44:22;;;;;;;9.00;5.22;;;;;;;22.13;66.14;99252.22;2068746;28;19935;-48
2022/10/26 03:45:23;;;;;;;11.10;6.63;;;;;;;22.18;65.94;99250.56;2067284;28;20401;-49
2022/10/26 03:46:24;;;;;;;;;;;;;;;22.10;66.15;99250.78;2070841;28;20072;-46
2022/10/26 03:47:25;;;;;;;9.18;5.60;;;;;;;22.16;66.02;99246.38;2070507;28;20312;-45
2022/10/26 03:48:27;;;;;;;9.75;6.18;;;;;;;22.20;65.81;99245.75;2069697;28;20058;-46
2022/10/26 03:49:28;;;;;;;8.50;5.40;;;;;;;22.22;65.77;99242.88;2073024;28;20046;-50
2022/10/26 03:50:31;;;;;;;9.10;5.47;;;;;;;22.24;65.85;99246.19;2068574;28;20041;-47
2022/10/26 03:51:32;;;;;;;8.93;5.55;;;;;;;22.23;65.68;99242.66;2069295;28;20049;-49
2022/10/26 03:52:34;;;;;;;9.00;6.03;;;;;;;22.24;65.74;99241.63;2068747;28;20053;-48
2022/10/26 03:53:34;;;;;;;6.40;4.85;;;;;;;22.26;65.86;99249.53;2073657;28;20785;-48
2022/10/26 03:54:36;;;;;;;9.18;6.15;;;;;;;22.25;65.73;99247.84;2068270;28;20060;-47
2022/10/26 03:55:37;;;;;;;10.90;5.45;;;;;;;22.23;65.89;99252.63;2068886;28;20083;-47
2022/10/26 03:56:39;;;;;;;10.43;5.38;;;;;;;22.23;65.83;99250.78;2065541;28;20461;-47
2022/10/26 03:57:41;;;;;;;6.70;5.70;;;;;;;22.23;65.81;99250.78;2068371;28;20056;-46
2022/10/26 03:58:42;;;;;;;8.63;5.68;;;;;;;22.25;65.84;99255.94;2068306;28;20085;-47
2022/10/26 03:59:43;;;;;;;8.32;5.53;;;;;;;22.25;65.76;99248.66;2067793;28;20049;-47
2022/10/26 04:00:45;;;;;;;9.07;6.07;;;;;;;22.25;65.77;99247.84;2068481;28;20084;-47
2022/10/26 04:01:46;;;;;;;9.57;6.07;;;;;;;22.27;65.63;99251.16;2068017;28;20511;-50
2022/10/26 04:02:55;;;;;;;11.13;6.10;;;;;;;22.25;65.82;99242.44;2065966;28;20049;-47
2022/10/26 04:03:55;;;;;;;9.68;5.82;;;;;;;22.24;65.73;99246.19;2069234;28;20060;-47
2022/10/26 04:04:57;;;;;;;7.07;5.78;;;;;;;22.25;65.59;99245.13;2069074;28;20473;-47
2022/10/26 04:06:01;;;;;;;9.15;5.88;;;;;;;22.24;65.73;99236.22;2067608;28;20054;-47
2022/10/26 04:07:03;;;;;;;9.05;5.80;;;;;;;22.24;65.68;99243.50;2066438;28;20054;-47
2022/10/26 04:08:05;;;;;;;11.93;5.80;;;;;;;22.24;65.78;99240.78;2068208;28;20049;-46
2022/10/26 04:09:07;;;;;;;8.85;6.13;;;;;;;22.23;65.67;99239.09;2072099;28;20590;-47
2022/10/26 04:10:09;;;;;;;10.10;6.22;;;;;;;22.24;65.59;99247.00;2067161;28;20065;-48
2022/10/26 04:11:10;;;;;;;9.27;6.13;;;;;;;22.24;65.50;99249.72;2066826;28;20132;-47
2022/10/26 04:12:12;;;;;;;6.60;5.13;;;;;;;22.26;65.65;99255.75;2067769;28;20183;-46
2022/10/26 04:13:13;;;;;;;10.57;6.05;;;;;;;22.25;65.57;99254.06;2067805;28;20057;-48
2022/10/26 04:14:15;;;;;;;8.02;5.30;;;;;;;22.26;65.56;99254.94;2068460;28;20394;-46
2022/10/26 04:15:16;;;;;;;8.77;5.15;;;;;;;22.25;65.56;99258.66;2066790;28;20052;-46
2022/10/26 04:16:18;;;;;;;8.65;5.55;;;;;;;22.24;65.55;99257.81;2067486;28;20821;-46
2022/10/26 04:17:19;;;;;;;6.70;5.53;;;;;;;22.26;65.77;99252.22;2069272;28;20057;-46
2022/10/26 04:18:20;;;;;;;7.80;5.50;;;;;;;22.25;65.69;99255.94;2068619;28;20053;-45
2022/10/26 04:19:21;;;;;;;10.55;6.35;;;;;;;22.24;65.91;99255.13;2069268;28;20437;-46
2022/10/26 04:20:23;;;;;;;10.25;5.70;;;;;;;22.25;65.77;99256.78;2066975;28;20045;-47
2022/10/26 04:21:26;;;;;;;12.30;5.93;;;;;;;22.25;65.81;99262.19;2067879;28;20037;-49
2022/10/26 04:22:28;;;;;;;8.15;5.43;;;;;;;22.24;65.76;99257.00;2067824;28;20049;-48
2022/10/26 04:23:29;;;;;;;12.77;6.03;;;;;;;22.25;65.52;99255.94;2068295;28;20049;-46
2022/10/26 04:24:31;;;;;;;10.85;6.47;;;;;;;22.25;65.61;99258.66;2069295;28;20052;-47
2022/10/26 04:25:33;;;;;;;10.25;6.05;;;;;;;22.25;65.70;99255.94;2067800;28;20132;-48
2022/10/26 04:26:34;;;;;;;8.60;5.97;;;;;;;22.24;65.71;99259.69;2067583;28;20188;-47
2022/10/26 04:27:36;;;;;;;10.95;7.10;;;;;;;22.24;65.66;99257.81;2066889;28;20041;-45
2022/10/26 04:28:37;;;;;;;8.85;5.93;;;;;;;22.25;65.61;99258.66;2069305;28;20052;-46
2022/10/26 04:29:38;;;;;;;10.23;6.15;;;;;;;22.24;65.63;99257.00;2066982;28;20053;-48
2022/10/26 04:30:40;;;;;;;11.48;6.32;;;;;;;22.25;65.81;99250.53;2069062;28;20049;-45
2022/10/26 04:31:42;;;;;;;8.98;6.43;;;;;;;22.24;65.57;99252.41;2068668;28;20053;-46
2022/10/26 04:32:42;;;;;;;6.82;5.43;;;;;;;22.23;65.75;99244.50;2068146;28;20465;-47
2022/10/26 04:33:44;;;;;;;7.18;5.85;;;;;;;22.24;65.76;99255.13;2067320;28;20053;-46
2022/10/26 04:34:45;;;;;;;9.18;5.20;;;;;;;22.25;65.65;99255.94;2072217;28;20084;-47
2022/10/26 04:35:47;;;;;;;10.63;5.72;;;;;;;22.25;65.60;99258.66;2067880;28;20601;-48
2022/10/26 04:36:49;;;;;;;10.80;5.47;;;;;;;22.23;65.69;99253.47;2065728;28;20053;-47
2022/10/26 04:37:51;;;;;;;8.43;5.93;;;;;;;22.24;65.53;99260.53;2065927;28;20060;-46
2022/10/26 04:38:52;;;;;;;8.98;5.68;;;;;;;22.24;65.65;99251.59;2070693;28;20058;-47
2022/10/26 04:39:54;;;;;;;;;;;;;;;22.11;66.15;99240.78;2069236;28;20063;-50
2022/10/26 04:40:54;;;;;;;;;;;;;;;22.01;66.40;99242.06;2069319;28;19928;-49
2022/10/26 04:41:56;;;;;;;9.30;5.85;;;;;;;22.08;66.36;99237.47;2068851;28;19979;-46
2022/10/26 04:42:57;;;;;;;7.90;6.57;;;;;;;22.14;66.01;99245.75;2069952;28;20069;-45
2022/10/26 04:43:59;;;;;;;8.07;5.72;;;;;;;22.16;65.94;99241.81;2070029;28;20394;-46
2022/10/26 04:45:00;;;;;;;8.02;5.45;;;;;;;22.21;65.79;99254.72;2069256;28;20053;-47
2022/10/26 04:46:02;;;;;;;10.48;5.32;;;;;;;22.21;65.66;99249.31;2066406;28;20057;-50
2022/10/26 04:47:02;;;;;;;9.07;5.55;;;;;;;22.22;65.75;99253.66;2067598;28;20057;-47
2022/10/26 04:48:06;;;;;;;8.10;5.63;;;;;;;22.22;65.37;99248.28;2069373;28;20128;-48
2022/10/26 04:49:07;;;;;;;11.45;5.78;;;;;;;22.21;65.86;99257.44;2069179;28;21509;-46
2022/10/26 04:50:10;;;;;;;7.15;5.53;;;;;;;22.22;65.99;99256.38;2069187;28;20054;-47
2022/10/26 04:51:11;;;;;;;10.15;5.68;;;;;;;22.21;65.62;99263.66;2069756;28;20049;-47
2022/10/26 04:52:14;;;;;;;7.07;5.30;;;;;;;22.23;65.66;99268.84;2067909;28;20049;-45
2022/10/26 04:53:16;;;;;;;8.75;4.95;;;;;;;22.21;65.66;99265.53;2070149;28;20064;-47
2022/10/26 04:54:17;;;;;;;8.25;5.47;;;;;;;22.19;65.43;99271.13;2072263;28;20612;-48
2022/10/26 04:55:19;;;;;;;11.50;6.13;;;;;;;22.21;65.74;99273.63;2069591;28;20081;-46
2022/10/26 04:56:20;;;;;;;10.23;4.95;;;;;;;22.21;65.80;99269.06;2070607;28;20053;-46
2022/10/26 04:57:21;;;;;;;6.65;5.60;;;;;;;22.22;65.57;99267.19;2069174;28;20060;-46
2022/10/26 04:58:22;;;;;;;13.20;6.30;;;;;;;22.22;65.57;99269.88;2070540;28;20198;-48
2022/10/26 04:59:24;;;;;;;13.10;5.78;;;;;;;22.22;65.62;99269.88;2072769;28;20053;-46
2022/10/26 05:00:25;;;;;;;10.20;5.55;;;;;;;22.21;65.63;99265.53;2070859;28;20071;-47